createdAt,value
2023-04-01T00:03:16.597Z,2.67
2023-04-01T00:08:19.544Z,2.40
2023-04-01T00:13:21.807Z,2.05
2023-04-01T00:18:24.557Z,2.17
2023-04-01T00:23:26.740Z,2.38
2023-04-01T00:28:29.743Z,2.28
2023-04-01T00:33:32.196Z,2.03
2023-04-01T00:38:34.359Z,2.05
2023-04-01T00:43:36.765Z,1.88
2023-04-01T00:48:43.807Z,2.30
2023-04-01T00:53:52.488Z,2.70
2023-04-01T00:59:09.689Z,3.03
2023-04-01T01:04:33.186Z,2.47
2023-04-01T01:09:58.438Z,2.25
2023-04-01T01:15:19.218Z,2.35
2023-04-01T01:20:30.155Z,2.45
2023-04-01T01:25:32.452Z,3.00
2023-04-01T01:30:40.613Z,2.30
2023-04-01T01:35:50.890Z,3.47
2023-04-01T01:40:55.310Z,2.50
2023-04-01T01:46:01.091Z,2.00
2023-04-01T01:51:04.671Z,2.30
2023-04-01T01:56:07.250Z,2.00
2023-04-01T02:01:16.902Z,2.00
2023-04-01T02:06:22.707Z,2.15
2023-04-01T02:11:50.245Z,2.05
2023-04-01T02:16:59.657Z,2.10
2023-04-01T02:22:05.114Z,1.95
2023-04-01T02:27:07.349Z,2.50
2023-04-01T02:32:11.218Z,2.28
2023-04-01T02:37:14.616Z,2.60
2023-04-01T02:42:17.146Z,3.03
2023-04-01T02:47:19.390Z,2.20
2023-04-01T02:52:21.564Z,2.90
2023-04-01T02:57:24.120Z,2.13
2023-04-01T03:02:26.633Z,2.33
2023-04-01T03:07:28.864Z,2.63
2023-04-01T03:12:31.112Z,2.30
2023-04-01T03:17:33.287Z,2.40
2023-04-01T03:22:36.596Z,3.17
2023-04-01T03:27:38.845Z,3.30
2023-04-01T03:32:41.326Z,4.07
2023-04-01T03:37:43.647Z,2.90
2023-04-01T03:42:46.051Z,3.88
2023-04-01T03:47:48.251Z,2.60
2023-04-01T03:52:50.504Z,3.05
2023-04-01T03:57:52.744Z,2.72
2023-04-01T04:02:56.498Z,2.30
2023-04-01T04:07:58.658Z,2.65
2023-04-01T04:13:01.024Z,2.97
2023-04-01T04:18:03.237Z,3.13
2023-04-01T04:23:05.486Z,2.72
2023-04-01T04:28:07.639Z,2.00
2023-04-01T04:33:09.826Z,3.05
2023-04-01T04:38:12.036Z,2.85
2023-04-01T04:43:16.045Z,3.53
2023-04-01T04:48:20.132Z,4.03
2023-04-01T04:53:22.313Z,4.47
2023-04-01T04:58:24.487Z,4.00
2023-04-01T05:03:26.839Z,3.83
2023-04-01T05:08:29.274Z,3.50
2023-04-01T05:13:31.510Z,4.32
2023-04-01T05:18:34.012Z,4.03
2023-04-01T05:23:36.581Z,3.42
2023-04-01T05:28:39.542Z,3.78
2023-04-01T05:33:41.929Z,3.92
2023-04-01T05:38:47.049Z,3.47
2023-04-01T05:43:49.233Z,3.58
2023-04-01T05:48:51.359Z,4.10
2023-04-01T05:53:53.492Z,5.13
2023-04-01T05:58:55.989Z,5.20
2023-04-01T06:03:58.432Z,3.15
2023-04-01T06:09:13.716Z,3.75
2023-04-01T06:14:44.934Z,2.55
2023-04-01T06:19:56.735Z,2.55
2023-04-01T06:25:20.205Z,3.07
2023-04-01T06:30:30.324Z,2.25
2023-04-01T06:35:51.213Z,2.97
2023-04-01T06:41:27.191Z,2.83
2023-04-01T06:46:58.381Z,4.30
2023-04-01T06:52:32.730Z,4.85
2023-04-01T06:57:48.859Z,3.78
2023-04-01T07:03:04.336Z,3.40
2023-04-01T07:08:15.160Z,2.83
2023-04-01T07:13:33.116Z,2.78
2023-04-01T07:19:03.434Z,1.77
2023-04-01T07:24:18.659Z,1.77
2023-04-01T07:29:21.154Z,2.00
2023-04-01T07:34:47.814Z,2.25
2023-04-01T07:39:49.897Z,2.17
2023-04-01T07:45:11.360Z,1.95
2023-04-01T07:50:19.470Z,1.73
2023-04-01T07:55:39.506Z,2.00
2023-04-01T08:00:52.332Z,1.90
2023-04-01T08:06:00.649Z,2.28
2023-04-01T08:11:29.039Z,2.90
2023-04-01T08:16:46.555Z,1.77
2023-04-01T08:21:53.993Z,1.85
2023-04-01T08:27:01.313Z,2.53
2023-04-01T08:32:13.990Z,2.67
2023-04-01T08:37:20.832Z,2.22
2023-04-01T08:42:41.529Z,2.20
2023-04-01T08:48:09.917Z,2.10
2023-04-01T08:53:27.933Z,1.92
2023-04-01T08:58:54.524Z,1.77
2023-04-01T09:04:25.185Z,1.83
2023-04-01T09:10:12.515Z,1.80
2023-04-01T09:15:46.818Z,1.40
2023-04-01T09:21:11.405Z,1.45
2023-04-01T09:26:36.284Z,1.42
2023-04-01T09:31:49.371Z,2.35
2023-04-01T09:37:23.330Z,1.63
2023-04-01T09:42:28.497Z,1.83
2023-04-01T09:48:01.645Z,3.45
2023-04-01T09:53:09.585Z,2.25
2023-04-01T09:58:43.677Z,2.17
2023-04-01T10:04:04.375Z,2.13
2023-04-01T10:09:12.090Z,1.38
2023-04-01T10:14:51.852Z,2.05
2023-04-01T10:20:20.350Z,1.40
2023-04-01T10:25:54.973Z,1.75
2023-04-01T10:31:15.071Z,1.42
2023-04-01T10:36:35.569Z,2.17
2023-04-01T10:41:49.421Z,2.15
2023-04-01T10:47:13.385Z,2.00
2023-04-01T10:52:49.236Z,2.10
2023-04-01T10:58:24.636Z,1.63
2023-04-01T11:03:52.043Z,2.42
2023-04-01T11:08:56.929Z,2.00
2023-04-01T11:14:35.990Z,2.30
2023-04-01T11:20:14.909Z,1.87
2023-04-01T11:25:36.485Z,2.75
2023-04-01T11:30:45.799Z,2.25
2023-04-01T11:36:25.382Z,1.42
2023-04-01T11:41:48.940Z,1.83
2023-04-01T11:46:58.735Z,1.98
2023-04-01T11:52:09.786Z,2.90
2023-04-01T11:57:25.704Z,1.65
2023-04-01T12:02:41.989Z,1.80
2023-04-01T12:07:47.122Z,1.92
2023-04-01T12:13:13.276Z,1.38
2023-04-01T12:18:29.899Z,1.45
2023-04-01T12:23:53.575Z,2.47
2023-04-01T12:29:41.014Z,2.72
2023-04-01T12:35:12.222Z,1.80
2023-04-01T12:41:00.556Z,1.80
2023-04-01T12:46:21.722Z,1.95
2023-04-01T12:51:38.979Z,1.90
2023-04-01T12:57:09.438Z,3.13
2023-04-01T13:02:26.830Z,1.83
2023-04-01T13:07:35.153Z,1.42
2023-04-01T13:12:50.979Z,2.58
2023-04-01T13:18:14.893Z,2.25
2023-04-01T13:23:34.676Z,2.53
2023-04-01T13:28:51.791Z,2.75
2023-04-01T13:34:21.623Z,0.93
2023-04-01T13:39:43.910Z,1.75
2023-04-01T13:45:01.741Z,1.75
2023-04-01T13:50:30.104Z,2.15
2023-04-01T13:55:52.744Z,1.90
2023-04-01T14:01:15.930Z,1.40
2023-04-01T14:06:28.011Z,2.75
2023-04-01T14:11:53.271Z,2.40
2023-04-01T14:17:04.833Z,2.80
2023-04-01T14:22:07.209Z,2.25
2023-04-01T14:27:10.437Z,2.58
2023-04-01T14:32:31.224Z,2.28
2023-04-01T14:37:54.546Z,2.33
2023-04-01T14:43:21.362Z,2.03
2023-04-01T14:48:26.584Z,2.60
2023-04-01T14:53:32.892Z,2.25
2023-04-01T14:58:51.921Z,2.88
2023-04-01T15:04:30.992Z,2.15
2023-04-01T15:09:51.787Z,3.00
2023-04-01T15:15:37.234Z,2.45
2023-04-01T15:21:05.211Z,2.08
2023-04-01T15:26:36.922Z,2.53
2023-04-01T15:31:51.081Z,2.90
2023-04-01T15:37:16.326Z,3.05
2023-04-01T15:43:00.186Z,2.78
2023-04-01T15:48:11.589Z,3.25
2023-04-01T15:53:19.397Z,3.25
2023-04-01T15:58:25.672Z,2.53
2023-04-01T16:03:46.731Z,2.50
2023-04-01T16:09:26.122Z,2.75
2023-04-01T16:14:57.428Z,3.00
2023-04-01T16:20:11.528Z,3.80
2023-04-01T16:25:21.812Z,2.55
2023-04-01T16:30:49.812Z,3.60
2023-04-01T16:36:02.057Z,2.63
2023-04-01T16:41:04.109Z,2.95
2023-04-01T16:46:28.007Z,2.92
2023-04-01T16:52:16.806Z,4.20
2023-04-01T16:57:51.820Z,3.55
2023-04-01T17:03:11.768Z,4.13
2023-04-01T17:08:31.925Z,4.22
2023-04-01T17:13:48.033Z,3.08
2023-04-01T17:19:27.614Z,3.65
2023-04-01T17:24:53.538Z,3.10
2023-04-01T17:30:04.494Z,2.60
2023-04-01T17:35:18.422Z,3.35
2023-04-01T17:40:41.817Z,3.08
2023-04-01T17:46:01.574Z,2.63
2023-04-01T17:51:13.478Z,2.70
2023-04-01T17:56:51.566Z,2.75
2023-04-01T18:02:05.856Z,2.00
2023-04-01T18:07:26.793Z,2.47
2023-04-01T18:13:07.368Z,2.47
2023-04-01T18:18:46.963Z,2.45
2023-04-01T18:24:02.363Z,3.70
2023-04-01T18:29:23.527Z,2.35
2023-04-01T18:34:43.437Z,2.17
2023-04-01T18:39:54.582Z,2.13
2023-04-01T18:45:44.165Z,2.20
2023-04-01T18:51:18.847Z,1.83
2023-04-01T18:56:32.831Z,1.52
2023-04-01T19:01:59.201Z,1.20
2023-04-01T19:07:22.883Z,1.98
2023-04-01T19:12:27.555Z,1.98
2023-04-01T19:17:37.515Z,1.50
2023-04-01T19:22:55.915Z,1.95
2023-04-01T19:28:19.790Z,2.22
2023-04-01T19:33:38.453Z,2.15
2023-04-01T19:38:44.498Z,1.85
2023-04-01T19:43:46.823Z,2.15
2023-04-01T19:49:28.508Z,12.68
2023-04-01T19:55:13.330Z,11.45
2023-04-01T20:00:57.146Z,22.08
2023-04-01T20:06:24.404Z,7.00
2023-04-01T20:12:01.862Z,2.53
2023-04-01T20:17:10.812Z,1.88
2023-04-01T20:22:40.456Z,1.88
2023-04-01T20:28:16.114Z,1.30
2023-04-01T20:33:33.289Z,2.28
2023-04-01T20:38:53.456Z,2.67
2023-04-01T20:44:18.701Z,3.47
2023-04-01T20:49:36.590Z,3.60
2023-04-01T20:55:02.736Z,2.60
2023-04-01T21:00:35.021Z,3.25
2023-04-01T21:05:37.386Z,5.50
2023-04-01T21:10:42.321Z,5.40
2023-04-01T21:15:50.176Z,2.55
2023-04-01T21:21:43.518Z,1.63
2023-04-01T21:26:54.922Z,2.30
2023-04-01T21:32:29.371Z,2.03
2023-04-01T21:37:46.532Z,1.92
2023-04-01T21:43:34.269Z,2.13
2023-04-01T21:48:48.272Z,2.13
2023-04-01T21:54:38.274Z,1.98
2023-04-01T22:00:17.599Z,1.73
2023-04-01T22:05:36.180Z,2.83
2023-04-01T22:10:50.524Z,1.98
2023-04-01T22:16:26.931Z,1.70
2023-04-01T22:21:53.451Z,2.15
2023-04-01T22:27:00.522Z,2.08
2023-04-01T22:32:20.942Z,1.55
2023-04-01T22:37:37.326Z,1.65
2023-04-01T22:43:10.298Z,3.00
2023-04-01T22:48:39.750Z,2.58
2023-04-01T22:54:15.773Z,2.90
2023-04-01T22:59:47.634Z,3.13
2023-04-01T23:04:56.695Z,2.72
2023-04-01T23:10:02.755Z,2.33
2023-04-01T23:15:05.672Z,1.77
2023-04-01T23:20:26.642Z,2.15
2023-04-01T23:25:36.254Z,2.17
2023-04-01T23:30:41.665Z,2.28
2023-04-01T23:35:53.685Z,2.38
2023-04-01T23:40:56.894Z,2.10
2023-04-01T23:46:04.844Z,2.55
2023-04-01T23:51:20.088Z,1.75
2023-04-01T23:56:22.273Z,3.00
